createdAt,value
2022-11-30T00:01:23.306Z,17.83
2022-11-30T00:03:54.854Z,19.23
2022-11-30T00:06:24.948Z,18.03
2022-11-30T00:08:57.166Z,18.10
2022-11-30T00:11:26.669Z,18.10
2022-11-30T00:13:53.676Z,17.80
2022-11-30T00:16:21.573Z,20.03
2022-11-30T00:18:48.639Z,20.20
2022-11-30T00:21:16.318Z,19.57
2022-11-30T00:23:45.623Z,20.43
2022-11-30T00:26:17.323Z,19.87
2022-11-30T00:28:47.869Z,21.60
2022-11-30T00:31:18.416Z,20.90
2022-11-30T00:33:45.681Z,21.00
2022-11-30T00:36:19.122Z,20.10
2022-11-30T00:38:46.940Z,19.43
2022-11-30T00:41:14.885Z,20.37
2022-11-30T00:43:41.954Z,19.50
2022-11-30T00:46:09.781Z,18.60
2022-11-30T00:48:38.611Z,20.80
2022-11-30T00:51:07.096Z,20.87
2022-11-30T00:53:34.162Z,18.67
2022-11-30T00:56:01.199Z,19.60
2022-11-30T00:58:28.112Z,23.00
2022-11-30T01:00:55.085Z,21.63
2022-11-30T01:03:22.085Z,20.70
2022-11-30T01:05:48.991Z,19.60
2022-11-30T01:08:16.196Z,21.53
2022-11-30T01:10:44.502Z,21.23
2022-11-30T01:13:14.743Z,19.90
2022-11-30T01:15:44.934Z,19.37
2022-11-30T01:18:11.993Z,18.27
2022-11-30T01:20:43.519Z,20.70
2022-11-30T01:23:13.332Z,18.80
2022-11-30T01:25:40.298Z,19.83
2022-11-30T01:28:09.613Z,21.47
2022-11-30T01:30:39.655Z,20.23
2022-11-30T01:33:07.277Z,21.03
2022-11-30T01:35:37.741Z,21.40
2022-11-30T01:38:04.639Z,22.57
2022-11-30T01:40:32.311Z,19.50
2022-11-30T01:42:59.211Z,20.60
2022-11-30T01:45:26.221Z,22.53
2022-11-30T01:47:56.907Z,21.97
2022-11-30T01:50:39.988Z,22.03
2022-11-30T01:53:12.445Z,20.07
2022-11-30T01:55:48.601Z,21.63
2022-11-30T01:58:30.495Z,20.20
2022-11-30T02:01:00.049Z,19.30
2022-11-30T02:03:43.876Z,18.77
2022-11-30T02:06:14.671Z,18.43
2022-11-30T02:08:49.745Z,18.10
2022-11-30T02:11:21.595Z,16.23
2022-11-30T02:14:05.719Z,17.90
2022-11-30T02:17:08.359Z,16.83
2022-11-30T02:20:22.690Z,16.93
2022-11-30T02:23:10.464Z,16.17
2022-11-30T02:26:16.233Z,17.97
2022-11-30T02:29:21.280Z,15.73
2022-11-30T02:32:15.101Z,16.77
2022-11-30T02:34:43.716Z,17.33
2022-11-30T02:37:14.584Z,17.60
2022-11-30T02:39:42.806Z,18.03
2022-11-30T02:42:14.639Z,16.50
2022-11-30T02:44:52.261Z,18.80
2022-11-30T02:47:28.300Z,19.27
2022-11-30T02:50:13.619Z,17.87
2022-11-30T02:52:44.068Z,20.47
2022-11-30T02:55:18.076Z,18.83
2022-11-30T02:57:45.249Z,18.57
2022-11-30T03:00:14.414Z,19.10
2022-11-30T03:02:44.995Z,19.23
2022-11-30T03:05:14.420Z,18.97
2022-11-30T03:07:41.353Z,19.67
2022-11-30T03:10:09.478Z,20.07
2022-11-30T03:12:36.726Z,19.33
2022-11-30T03:15:07.622Z,18.30
2022-11-30T03:17:37.940Z,20.43
2022-11-30T03:20:05.872Z,19.13
2022-11-30T03:22:32.841Z,18.70
2022-11-30T03:24:59.747Z,19.63
2022-11-30T03:27:26.700Z,20.00
2022-11-30T03:29:56.621Z,20.77
2022-11-30T03:32:25.181Z,20.13
2022-11-30T03:34:52.260Z,20.63
2022-11-30T03:37:19.251Z,19.00
2022-11-30T03:39:49.672Z,23.60
2022-11-30T03:42:19.373Z,21.27
2022-11-30T03:44:46.454Z,20.23
2022-11-30T03:47:16.516Z,22.57
2022-11-30T03:49:43.408Z,20.20
2022-11-30T03:52:13.108Z,23.33
2022-11-30T03:54:40.067Z,21.37
2022-11-30T03:57:06.958Z,22.83
2022-11-30T03:59:33.906Z,23.43
2022-11-30T04:02:01.004Z,23.10
2022-11-30T04:04:27.991Z,23.23
2022-11-30T04:06:54.915Z,21.70
2022-11-30T04:09:21.833Z,19.20
2022-11-30T04:11:48.769Z,20.60
2022-11-30T04:14:15.739Z,21.93
2022-11-30T04:16:42.700Z,21.87
2022-11-30T04:19:09.665Z,21.47
2022-11-30T04:21:36.693Z,23.27
2022-11-30T04:24:03.848Z,20.40
2022-11-30T04:26:30.751Z,22.47
2022-11-30T04:28:57.648Z,20.83
2022-11-30T04:31:24.677Z,22.60
2022-11-30T04:33:54.620Z,24.37
2022-11-30T04:36:24.946Z,23.23
2022-11-30T04:38:51.872Z,24.23
2022-11-30T04:41:18.799Z,21.17
2022-11-30T04:43:45.766Z,22.93
2022-11-30T04:46:12.914Z,20.43
2022-11-30T04:48:39.941Z,21.80
2022-11-30T04:51:08.893Z,20.97
2022-11-30T04:53:37.633Z,21.60
2022-11-30T04:56:09.943Z,20.33
2022-11-30T04:58:38.793Z,20.77
2022-11-30T05:01:06.275Z,22.17
2022-11-30T05:03:33.204Z,21.80
2022-11-30T05:06:00.201Z,21.47
2022-11-30T05:08:27.261Z,18.73
2022-11-30T05:10:55.389Z,22.27
2022-11-30T05:13:24.281Z,21.50
2022-11-30T05:15:52.480Z,21.27
2022-11-30T05:18:20.044Z,18.67
2022-11-30T05:20:53.954Z,17.57
2022-11-30T05:23:21.965Z,18.23
2022-11-30T05:25:51.493Z,20.87
2022-11-30T05:28:19.366Z,19.23
2022-11-30T05:30:46.708Z,20.43
2022-11-30T05:33:16.472Z,17.50
2022-11-30T05:35:43.721Z,20.73
2022-11-30T05:38:12.912Z,20.10
2022-11-30T05:40:41.637Z,19.90
2022-11-30T05:43:12.846Z,20.47
2022-11-30T05:45:41.545Z,21.63
2022-11-30T05:48:11.364Z,23.10
2022-11-30T05:50:41.608Z,23.03
2022-11-30T05:53:11.123Z,23.93
2022-11-30T05:55:38.331Z,24.57
2022-11-30T05:58:07.879Z,22.63
2022-11-30T06:00:34.815Z,20.97
2022-11-30T06:03:01.887Z,20.93
2022-11-30T06:05:38.445Z,21.50
2022-11-30T06:08:08.798Z,19.13
2022-11-30T06:10:39.866Z,20.17
2022-11-30T06:13:09.743Z,20.90
2022-11-30T06:15:41.162Z,20.30
2022-11-30T06:18:10.069Z,21.70
2022-11-30T06:20:37.409Z,22.80
2022-11-30T06:23:04.368Z,21.70
2022-11-30T06:25:31.630Z,19.33
2022-11-30T06:28:00.609Z,17.77
2022-11-30T06:30:30.720Z,20.20
2022-11-30T06:33:01.210Z,18.10
2022-11-30T06:35:28.312Z,17.07
2022-11-30T06:37:58.481Z,17.27
2022-11-30T06:40:25.936Z,17.33
2022-11-30T06:42:56.460Z,17.67
2022-11-30T06:45:23.425Z,16.77
2022-11-30T06:47:59.437Z,16.33
2022-11-30T06:50:26.626Z,17.37
2022-11-30T06:52:56.492Z,15.93
2022-11-30T06:55:33.854Z,20.20
2022-11-30T06:58:14.648Z,20.30
2022-11-30T07:00:42.855Z,18.20
2022-11-30T07:03:11.875Z,19.33
2022-11-30T07:05:45.380Z,16.50
2022-11-30T07:08:21.214Z,16.17
2022-11-30T07:10:51.232Z,15.77
2022-11-30T07:13:20.369Z,16.37
2022-11-30T07:15:54.434Z,21.13
2022-11-30T07:18:31.910Z,16.60
2022-11-30T07:21:07.692Z,14.83
2022-11-30T07:23:56.634Z,20.67
2022-11-30T07:26:25.421Z,14.90
2022-11-30T07:28:55.341Z,14.57
2022-11-30T07:31:33.770Z,14.43
2022-11-30T07:34:06.982Z,15.30
2022-11-30T07:36:35.485Z,17.57
2022-11-30T07:39:03.761Z,15.73
2022-11-30T07:41:31.469Z,19.13
2022-11-30T07:43:58.494Z,19.70
2022-11-30T07:46:26.072Z,17.00
2022-11-30T07:48:53.057Z,13.53
2022-11-30T07:51:22.524Z,15.30
2022-11-30T07:53:55.721Z,14.87
2022-11-30T07:56:23.796Z,21.07
2022-11-30T07:58:58.280Z,18.63
2022-11-30T08:01:29.278Z,22.07
2022-11-30T08:03:59.805Z,15.43
2022-11-30T08:06:31.146Z,14.53
2022-11-30T08:09:04.039Z,15.20
2022-11-30T08:11:34.791Z,18.73
2022-11-30T08:14:02.678Z,16.83
2022-11-30T08:16:36.332Z,14.57
2022-11-30T08:19:04.108Z,16.93
2022-11-30T08:21:34.156Z,15.60
2022-11-30T08:24:01.187Z,17.40
2022-11-30T08:26:37.134Z,20.90
2022-11-30T08:29:04.062Z,18.43
2022-11-30T08:31:36.350Z,21.83
2022-11-30T08:34:10.941Z,24.87
2022-11-30T08:36:39.871Z,16.37
2022-11-30T08:39:09.058Z,18.77
2022-11-30T08:41:36.563Z,23.53
2022-11-30T08:44:03.719Z,15.97
2022-11-30T08:52:20.887Z,17.93
2022-11-30T08:54:55.112Z,18.60
2022-11-30T08:57:22.520Z,19.40
2022-11-30T08:59:49.981Z,17.83
2022-11-30T09:02:19.687Z,16.20
2022-11-30T09:04:49.228Z,16.07
2022-11-30T09:07:16.600Z,19.90
2022-11-30T09:09:43.552Z,16.47
2022-11-30T09:12:10.639Z,21.47
2022-11-30T09:14:37.724Z,17.50
2022-11-30T09:17:10.786Z,17.77
2022-11-30T09:19:37.735Z,20.00
2022-11-30T09:22:04.652Z,18.80
2022-11-30T09:24:31.600Z,16.63
2022-11-30T09:26:58.492Z,17.13
2022-11-30T09:29:25.555Z,16.87
2022-11-30T09:31:52.652Z,19.80
2022-11-30T09:34:19.677Z,20.20
2022-11-30T09:36:46.653Z,22.10
2022-11-30T09:39:13.715Z,19.00
2022-11-30T09:42:02.759Z,18.90
2022-11-30T09:45:02.392Z,18.70
2022-11-30T09:47:49.378Z,19.20
2022-11-30T09:50:25.191Z,20.13
2022-11-30T09:52:59.033Z,22.07
2022-11-30T09:55:34.732Z,17.20
2022-11-30T09:58:04.443Z,19.67
2022-11-30T10:00:33.037Z,21.17
2022-11-30T10:03:04.657Z,26.10
2022-11-30T10:05:50.178Z,25.37
2022-11-30T10:08:35.307Z,18.43
2022-11-30T10:11:42.599Z,18.97
2022-11-30T10:14:46.250Z,18.83
2022-11-30T10:17:46.401Z,17.80
2022-11-30T10:21:12.590Z,20.03
2022-11-30T10:23:45.716Z,17.53
2022-11-30T10:26:32.461Z,18.23
2022-11-30T10:29:19.369Z,19.70
2022-11-30T10:31:57.756Z,19.50
2022-11-30T10:34:36.150Z,20.17
2022-11-30T10:37:13.458Z,18.67
2022-11-30T10:40:00.850Z,21.30
2022-11-30T10:42:47.094Z,19.73
2022-11-30T10:45:22.165Z,20.93
2022-11-30T10:48:14.288Z,20.77
2022-11-30T10:50:42.188Z,21.93
2022-11-30T10:53:13.471Z,22.90
2022-11-30T10:55:44.866Z,23.00
2022-11-30T10:58:38.445Z,24.13
2022-11-30T11:01:07.975Z,23.60
2022-11-30T11:03:35.605Z,23.30
2022-11-30T11:06:15.753Z,23.27
2022-11-30T11:08:45.609Z,22.80
2022-11-30T11:11:36.520Z,21.23
2022-11-30T11:14:33.654Z,20.43
2022-11-30T11:17:21.989Z,24.07
2022-11-30T11:19:51.499Z,20.33
2022-11-30T11:22:24.891Z,20.67
2022-11-30T11:25:16.244Z,17.43
2022-11-30T11:27:45.152Z,21.60
2022-11-30T11:30:27.487Z,19.90
2022-11-30T11:33:12.308Z,19.87
2022-11-30T11:35:51.267Z,21.83
2022-11-30T11:38:50.319Z,21.67
2022-11-30T11:41:36.321Z,21.20
2022-11-30T11:44:03.210Z,20.27
2022-11-30T11:46:35.546Z,21.77
2022-11-30T11:49:21.493Z,25.83
2022-11-30T11:52:13.930Z,21.53
2022-11-30T11:55:05.355Z,21.60
2022-11-30T11:57:55.095Z,20.77
2022-11-30T12:00:25.381Z,22.03
2022-11-30T12:03:04.930Z,21.83
2022-11-30T12:05:38.367Z,23.53
2022-11-30T12:08:38.628Z,22.40
2022-11-30T12:11:42.241Z,23.67
2022-11-30T12:14:16.639Z,24.03
2022-11-30T12:17:08.540Z,23.53
2022-11-30T12:20:13.878Z,24.80
2022-11-30T12:23:15.655Z,26.30
2022-11-30T12:26:20.069Z,25.03
2022-11-30T12:29:40.249Z,25.33
2022-11-30T12:32:13.197Z,25.97
2022-11-30T12:34:55.086Z,26.00
2022-11-30T12:37:47.498Z,23.30
2022-11-30T12:40:29.767Z,23.10
2022-11-30T12:43:35.597Z,23.10
2022-11-30T12:46:38.877Z,23.47
2022-11-30T12:49:36.531Z,22.63
2022-11-30T12:52:18.628Z,22.97
2022-11-30T12:55:07.134Z,22.83
2022-11-30T12:58:00.935Z,24.60
2022-11-30T13:00:48.145Z,23.57
2022-11-30T13:03:40.549Z,24.33
2022-11-30T13:06:44.650Z,22.37
2022-11-30T13:09:20.227Z,22.27
2022-11-30T13:11:55.331Z,22.30
2022-11-30T13:14:25.336Z,23.60
2022-11-30T13:17:04.090Z,24.80
2022-11-30T13:20:07.641Z,22.70
2022-11-30T13:22:52.522Z,21.53
2022-11-30T13:25:59.696Z,23.43
2022-11-30T13:28:50.355Z,21.80
2022-11-30T13:31:27.968Z,22.30
2022-11-30T13:33:54.916Z,21.73
2022-11-30T13:36:44.803Z,24.37
2022-11-30T13:39:14.636Z,22.23
2022-11-30T13:41:44.695Z,23.20
2022-11-30T13:44:35.078Z,23.03
2022-11-30T13:47:21.426Z,24.30
2022-11-30T13:50:00.044Z,21.80
2022-11-30T13:53:25.576Z,21.40
2022-11-30T13:56:01.037Z,20.47
2022-11-30T13:58:32.069Z,23.90
2022-11-30T14:01:26.476Z,26.87
2022-11-30T14:04:18.574Z,23.83
2022-11-30T14:06:55.524Z,24.00
2022-11-30T14:09:47.094Z,22.13
2022-11-30T14:12:36.871Z,21.57
2022-11-30T14:15:31.869Z,24.20
2022-11-30T14:17:59.197Z,23.87
2022-11-30T14:20:37.500Z,25.43
2022-11-30T14:23:30.537Z,27.60
2022-11-30T14:26:10.298Z,30.13
2022-11-30T14:29:04.170Z,29.13
2022-11-30T14:31:41.936Z,29.93
2022-11-30T14:34:18.077Z,30.47
2022-11-30T14:36:59.618Z,28.17
2022-11-30T14:39:42.017Z,28.77
2022-11-30T14:42:28.113Z,29.60
2022-11-30T14:44:56.401Z,30.00
2022-11-30T14:47:32.540Z,30.20
2022-11-30T14:50:02.836Z,28.87
2022-11-30T14:52:58.036Z,30.83
2022-11-30T14:55:46.242Z,30.90
2022-11-30T14:58:29.621Z,31.17
2022-11-30T15:00:57.438Z,30.10
2022-11-30T15:03:28.765Z,31.37
2022-11-30T15:06:03.525Z,31.03
2022-11-30T15:08:44.272Z,33.23
2022-11-30T15:11:13.771Z,33.97
2022-11-30T15:13:51.132Z,33.63
2022-11-30T15:16:28.398Z,34.37
2022-11-30T15:18:58.062Z,34.93
2022-11-30T15:21:34.123Z,32.30
2022-11-30T15:24:02.389Z,33.47
2022-11-30T15:26:54.843Z,33.57
2022-11-30T15:29:53.098Z,35.93
2022-11-30T15:32:23.915Z,34.63
2022-11-30T15:34:57.843Z,32.40
2022-11-30T15:37:34.938Z,33.33
2022-11-30T15:40:06.004Z,33.77
2022-11-30T15:42:44.030Z,33.27
2022-11-30T15:45:24.465Z,34.57
2022-11-30T15:47:53.088Z,34.87
2022-11-30T15:50:41.121Z,33.73
2022-11-30T15:53:47.053Z,33.33
2022-11-30T15:56:25.980Z,34.63
2022-11-30T15:59:14.711Z,34.03
2022-11-30T16:02:18.137Z,35.67
2022-11-30T16:04:57.189Z,33.57
2022-11-30T16:07:51.538Z,34.53
2022-11-30T16:10:26.247Z,34.50
2022-11-30T16:12:54.935Z,34.87
2022-11-30T16:15:36.965Z,36.40
2022-11-30T16:18:20.684Z,34.77
2022-11-30T16:21:00.121Z,34.67
2022-11-30T16:23:28.421Z,42.63
2022-11-30T16:25:55.838Z,37.70
2022-11-30T16:28:23.315Z,37.97
2022-11-30T16:30:51.091Z,35.77
2022-11-30T16:33:25.169Z,34.13
2022-11-30T16:35:59.450Z,35.37
2022-11-30T16:38:27.509Z,36.27
2022-11-30T16:40:55.865Z,39.87
2022-11-30T16:43:26.152Z,38.57
2022-11-30T16:45:55.806Z,37.13
2022-11-30T16:48:22.790Z,38.27
2022-11-30T16:50:49.700Z,38.40
2022-11-30T16:53:16.670Z,36.23
2022-11-30T16:55:44.413Z,38.33
2022-11-30T16:58:11.376Z,38.97
2022-11-30T17:00:40.250Z,35.30
2022-11-30T17:03:19.013Z,34.73
2022-11-30T17:05:45.957Z,36.33
2022-11-30T17:08:12.975Z,33.80
2022-11-30T17:10:40.288Z,36.03
2022-11-30T17:13:07.261Z,35.13
2022-11-30T17:15:34.214Z,33.67
2022-11-30T17:18:01.147Z,34.03
2022-11-30T17:20:28.352Z,32.50
2022-11-30T17:22:55.518Z,33.80
2022-11-30T17:25:24.116Z,37.03
2022-11-30T17:27:51.905Z,36.03
2022-11-30T17:30:21.960Z,35.13
2022-11-30T17:32:50.551Z,34.87
2022-11-30T17:35:20.484Z,35.63
2022-11-30T17:37:47.518Z,36.60
2022-11-30T17:40:17.967Z,40.00
2022-11-30T17:42:44.876Z,37.20
2022-11-30T17:45:11.926Z,38.30
2022-11-30T17:47:38.846Z,37.47
2022-11-30T17:50:07.583Z,37.87
2022-11-30T17:52:34.517Z,35.33
2022-11-30T17:55:01.522Z,36.80
2022-11-30T17:57:28.430Z,36.80
2022-11-30T17:59:55.422Z,35.83
2022-11-30T18:02:22.420Z,38.43
2022-11-30T18:04:49.638Z,37.40
2022-11-30T18:07:17.031Z,36.17
2022-11-30T18:09:43.943Z,36.73
2022-11-30T18:12:11.611Z,37.03
2022-11-30T18:14:38.589Z,35.70
2022-11-30T18:17:05.729Z,33.63
2022-11-30T18:19:32.705Z,37.03
2022-11-30T18:21:59.675Z,38.90
2022-11-30T18:24:26.796Z,39.43
2022-11-30T18:26:54.101Z,37.27
2022-11-30T18:29:21.321Z,39.27
2022-11-30T18:31:51.402Z,39.80
2022-11-30T18:34:18.401Z,36.07
2022-11-30T18:36:45.309Z,37.73
2022-11-30T18:39:12.263Z,38.00
2022-11-30T18:41:39.333Z,35.03
2022-11-30T18:44:06.471Z,37.03
2022-11-30T18:46:33.502Z,35.23
2022-11-30T18:49:01.642Z,38.00
2022-11-30T18:51:30.929Z,39.63
2022-11-30T18:54:06.869Z,38.13
2022-11-30T18:56:37.089Z,38.07
2022-11-30T18:59:12.926Z,41.20
2022-11-30T19:01:40.969Z,40.87
2022-11-30T19:04:10.357Z,41.17
2022-11-30T19:06:39.491Z,39.87
2022-11-30T19:09:13.139Z,39.23
2022-11-30T19:11:41.323Z,43.10
2022-11-30T19:14:10.206Z,43.73
2022-11-30T19:16:37.377Z,42.73
2022-11-30T19:19:07.715Z,43.17
2022-11-30T19:21:35.184Z,40.33
2022-11-30T19:24:02.204Z,39.77
2022-11-30T19:26:29.499Z,43.63
2022-11-30T19:28:57.587Z,43.77
2022-11-30T19:31:25.827Z,48.37
2022-11-30T19:33:55.387Z,44.30
2022-11-30T19:36:28.179Z,44.03
2022-11-30T19:38:56.842Z,43.37
2022-11-30T19:41:23.990Z,42.77
2022-11-30T19:44:03.601Z,41.17
2022-11-30T19:46:32.025Z,41.77
2022-11-30T19:49:01.348Z,43.77
2022-11-30T19:51:34.766Z,40.70
2022-11-30T19:54:02.059Z,38.57
2022-11-30T19:56:31.685Z,41.53
2022-11-30T19:59:04.373Z,39.83
2022-11-30T20:01:32.567Z,43.80
2022-11-30T20:03:59.667Z,41.73
2022-11-30T20:06:37.632Z,40.20
2022-11-30T20:09:07.022Z,38.33
2022-11-30T20:11:34.480Z,40.37
2022-11-30T20:14:01.678Z,40.83
2022-11-30T20:16:29.177Z,40.00
2022-11-30T20:19:02.668Z,43.00
2022-11-30T20:21:33.486Z,38.37
2022-11-30T20:24:04.942Z,39.20
2022-11-30T20:26:41.564Z,39.37
2022-11-30T20:29:14.021Z,38.27
2022-11-30T20:31:41.541Z,42.33
2022-11-30T20:34:08.801Z,39.17
2022-11-30T20:36:36.329Z,39.50
2022-11-30T20:39:05.005Z,40.20
2022-11-30T20:41:32.046Z,41.80
2022-11-30T20:43:59.004Z,43.40
2022-11-30T20:46:36.797Z,39.80
2022-11-30T20:49:15.512Z,38.30
2022-11-30T20:51:42.519Z,41.60
2022-11-30T20:54:10.675Z,37.73
2022-11-30T20:56:38.922Z,39.97
2022-11-30T20:59:12.968Z,40.23
2022-11-30T21:01:45.363Z,44.60
2022-11-30T21:04:12.767Z,40.47
2022-11-30T21:06:40.571Z,40.73
2022-11-30T21:09:07.540Z,42.30
2022-11-30T21:11:34.638Z,42.40
2022-11-30T21:14:01.696Z,42.90
2022-11-30T21:16:29.830Z,41.90
2022-11-30T21:19:01.521Z,42.77
2022-11-30T21:21:35.261Z,44.07
2022-11-30T21:24:08.693Z,40.93
2022-11-30T21:26:45.477Z,46.00
2022-11-30T21:29:16.200Z,41.57
2022-11-30T21:31:44.884Z,46.53
2022-11-30T21:34:12.434Z,42.23
2022-11-30T21:36:39.776Z,42.77
2022-11-30T21:39:07.682Z,38.43
2022-11-30T21:41:39.761Z,39.67
2022-11-30T21:44:11.350Z,39.63
2022-11-30T21:46:38.780Z,38.13
2022-11-30T21:49:06.822Z,37.73
2022-11-30T21:51:34.493Z,39.83
2022-11-30T21:54:05.725Z,39.43
2022-11-30T21:56:36.615Z,39.27
2022-11-30T21:59:10.724Z,37.40
2022-11-30T22:01:41.677Z,38.13
2022-11-30T22:04:11.094Z,37.60
2022-11-30T22:06:39.943Z,36.30
2022-11-30T22:09:13.237Z,35.30
2022-11-30T22:11:42.689Z,34.10
2022-11-30T22:14:15.983Z,33.17
2022-11-30T22:16:43.291Z,33.27
2022-11-30T22:19:10.417Z,33.07
2022-11-30T22:21:37.377Z,33.27
2022-11-30T22:24:09.493Z,33.43
2022-11-30T22:26:39.680Z,31.13
2022-11-30T22:29:22.585Z,30.27
2022-11-30T22:31:52.791Z,26.90
2022-11-30T22:34:21.046Z,27.80
2022-11-30T22:36:48.424Z,26.63
2022-11-30T22:39:20.724Z,25.90
2022-11-30T22:41:55.055Z,26.10
2022-11-30T22:44:22.735Z,29.03
2022-11-30T22:46:49.819Z,26.13
2022-11-30T22:49:21.080Z,27.03
2022-11-30T22:51:50.125Z,24.03
2022-11-30T22:54:18.013Z,26.07
2022-11-30T22:56:46.555Z,26.53
2022-11-30T22:59:14.833Z,25.77
2022-11-30T23:01:50.189Z,25.53
2022-11-30T23:04:20.984Z,23.87
2022-11-30T23:06:49.524Z,26.60
2022-11-30T23:09:20.384Z,24.80
2022-11-30T23:11:47.900Z,26.63
2022-11-30T23:14:16.290Z,26.10
2022-11-30T23:16:44.669Z,25.73
2022-11-30T23:19:12.861Z,26.57
2022-11-30T23:21:42.587Z,28.07
2022-11-30T23:24:16.873Z,25.27
2022-11-30T23:26:44.042Z,26.87
2022-11-30T23:29:17.775Z,25.40
2022-11-30T23:31:46.178Z,29.27
2022-11-30T23:34:21.478Z,31.20
2022-11-30T23:36:49.656Z,31.53
2022-11-30T23:39:19.031Z,28.03
2022-11-30T23:41:46.308Z,27.63
2022-11-30T23:44:13.447Z,26.30
2022-11-30T23:46:40.630Z,24.97
2022-11-30T23:49:08.275Z,23.20
2022-11-30T23:51:35.563Z,22.97
2022-11-30T23:54:02.522Z,21.60
2022-11-30T23:56:29.435Z,27.13
2022-11-30T23:58:56.432Z,24.70
